createdAt,value
2022-12-15T00:02:04.729Z,57.57
2022-12-15T00:04:56.104Z,57.28
2022-12-15T00:07:46.009Z,56.98
2022-12-15T00:10:36.188Z,56.84
2022-12-15T00:13:31.121Z,57.15
2022-12-15T00:16:19.434Z,57.03
2022-12-15T00:19:09.579Z,56.93
2022-12-15T00:21:59.522Z,56.92
2022-12-15T00:24:49.594Z,56.88
2022-12-15T00:27:40.164Z,57.53
2022-12-15T00:30:31.162Z,57.74
2022-12-15T00:33:25.736Z,57.53
2022-12-15T00:36:16.654Z,57.15
2022-12-15T00:38:49.286Z,57.46
2022-12-15T00:41:21.678Z,57.64
2022-12-15T00:43:53.702Z,58.09
2022-12-15T00:46:45.566Z,57.92
2022-12-15T00:49:31.714Z,57.16
2022-12-15T00:52:21.688Z,56.84
2022-12-15T00:55:11.503Z,56.38
2022-12-15T00:58:02.696Z,56.42
2022-12-15T01:00:52.451Z,56.29
2022-12-15T01:03:43.413Z,56.24
2022-12-15T01:06:35.494Z,56.61
2022-12-15T01:09:27.658Z,56.21
2022-12-15T01:12:17.150Z,56.23
2022-12-15T01:15:07.154Z,56.31
2022-12-15T01:17:57.064Z,56.10
2022-12-15T01:20:32.772Z,56.03
2022-12-15T01:23:04.942Z,55.84
2022-12-15T01:25:41.998Z,55.86
2022-12-15T01:28:14.175Z,55.86
2022-12-15T01:30:46.784Z,55.80
2022-12-15T01:33:20.233Z,55.65
2022-12-15T01:36:00.815Z,55.53
2022-12-15T01:38:33.224Z,55.26
2022-12-15T01:41:10.860Z,54.95
2022-12-15T01:43:46.334Z,54.95
2022-12-15T01:46:23.693Z,54.81
2022-12-15T01:49:04.140Z,55.04
2022-12-15T01:51:40.787Z,55.06
2022-12-15T01:54:16.274Z,55.30
2022-12-15T01:56:51.918Z,55.47
2022-12-15T01:59:28.216Z,55.35
2022-12-15T02:02:01.495Z,55.50
2022-12-15T02:04:34.864Z,55.33
2022-12-15T02:07:07.388Z,55.08
2022-12-15T02:09:39.939Z,55.46
2022-12-15T02:12:21.764Z,55.39
2022-12-15T02:15:12.113Z,55.52
2022-12-15T02:17:52.413Z,55.41
2022-12-15T02:20:42.283Z,55.55
2022-12-15T02:23:57.428Z,55.38
2022-12-15T02:26:59.299Z,55.32
2022-12-15T02:30:00.635Z,55.14
2022-12-15T02:32:41.992Z,55.06
2022-12-15T02:35:21.878Z,54.95
2022-12-15T02:37:54.678Z,54.92
2022-12-15T02:40:27.185Z,55.04
2022-12-15T02:43:03.009Z,54.83
2022-12-15T02:45:44.377Z,54.74
2022-12-15T02:48:29.135Z,54.78
2022-12-15T02:51:13.437Z,54.98
2022-12-15T02:54:04.515Z,54.89
2022-12-15T02:56:43.771Z,54.80
2022-12-15T02:59:26.771Z,54.91
2022-12-15T03:02:02.283Z,55.01
2022-12-15T03:04:35.141Z,54.78
2022-12-15T03:07:10.176Z,54.53
2022-12-15T03:09:43.545Z,54.67
2022-12-15T03:12:16.176Z,54.45
2022-12-15T03:14:48.597Z,54.16
2022-12-15T03:17:21.102Z,54.39
2022-12-15T03:19:53.281Z,54.60
2022-12-15T03:22:25.817Z,54.53
2022-12-15T03:24:57.931Z,54.38
2022-12-15T03:27:30.248Z,54.45
2022-12-15T03:30:02.462Z,54.62
2022-12-15T03:32:34.548Z,54.59
2022-12-15T03:35:08.089Z,54.57
2022-12-15T03:37:41.519Z,54.51
2022-12-15T03:40:15.470Z,54.53
2022-12-15T03:42:50.956Z,54.48
2022-12-15T03:45:24.501Z,54.33
2022-12-15T03:47:57.950Z,54.40
2022-12-15T03:50:31.531Z,54.25
2022-12-15T03:53:05.878Z,54.25
2022-12-15T03:55:38.370Z,54.32
2022-12-15T03:58:10.552Z,54.15
2022-12-15T04:00:42.820Z,54.26
2022-12-15T04:03:15.022Z,54.32
2022-12-15T04:05:47.430Z,54.47
2022-12-15T04:08:26.972Z,54.68
2022-12-15T04:11:00.022Z,54.83
2022-12-15T04:13:32.857Z,54.59
2022-12-15T04:16:05.927Z,54.80
2022-12-15T04:18:38.308Z,54.68
2022-12-15T04:21:10.799Z,54.71
2022-12-15T04:24:00.592Z,54.58
2022-12-15T04:26:50.507Z,54.66
2022-12-15T04:29:40.298Z,54.83
2022-12-15T04:32:30.239Z,54.84
2022-12-15T04:35:20.266Z,54.72
2022-12-15T04:38:10.059Z,54.67
2022-12-15T04:41:00.356Z,54.14
2022-12-15T04:43:50.752Z,53.63
2022-12-15T04:46:40.631Z,53.59
2022-12-15T04:49:30.242Z,53.34
2022-12-15T04:52:20.107Z,53.53
2022-12-15T04:55:10.069Z,53.16
2022-12-15T04:58:00.270Z,53.05
2022-12-15T05:00:49.951Z,53.22
2022-12-15T05:03:39.808Z,53.39
2022-12-15T05:06:32.273Z,53.55
2022-12-15T05:09:22.392Z,53.85
2022-12-15T05:12:12.733Z,53.90
2022-12-15T05:15:03.162Z,54.03
2022-12-15T05:17:52.852Z,53.79
2022-12-15T05:20:43.511Z,53.76
2022-12-15T05:23:33.446Z,53.80
2022-12-15T05:26:23.608Z,53.70
2022-12-15T05:29:13.472Z,53.70
2022-12-15T05:31:51.965Z,53.56
2022-12-15T05:34:26.985Z,53.41
2022-12-15T05:37:00.519Z,53.35
2022-12-15T05:39:33.080Z,53.49
2022-12-15T05:42:06.103Z,53.53
2022-12-15T05:44:38.499Z,53.44
2022-12-15T05:47:13.829Z,53.48
2022-12-15T05:49:47.963Z,53.37
2022-12-15T05:52:20.201Z,53.20
2022-12-15T05:54:52.387Z,53.30
2022-12-15T05:57:24.747Z,53.27
2022-12-15T05:59:57.366Z,53.58
2022-12-15T06:02:31.054Z,53.83
2022-12-15T06:05:03.861Z,53.80
2022-12-15T06:07:36.348Z,53.56
2022-12-15T06:10:12.296Z,53.57
2022-12-15T06:12:47.181Z,53.60
2022-12-15T06:15:20.984Z,53.73
2022-12-15T06:17:55.903Z,53.76
2022-12-15T06:20:28.255Z,53.75
2022-12-15T06:23:00.431Z,54.11
2022-12-15T06:25:32.731Z,53.82
2022-12-15T06:28:05.083Z,53.79
2022-12-15T06:30:38.671Z,53.73
2022-12-15T06:33:10.803Z,53.70
2022-12-15T06:35:44.046Z,53.57
2022-12-15T06:38:21.971Z,53.98
2022-12-15T06:41:00.630Z,54.22
2022-12-15T06:43:34.458Z,54.36
2022-12-15T06:46:07.511Z,54.23
2022-12-15T06:48:42.533Z,54.46
2022-12-15T06:51:20.297Z,54.27
2022-12-15T06:53:54.400Z,53.97
2022-12-15T06:56:34.090Z,54.25
2022-12-15T06:59:08.717Z,54.42
2022-12-15T07:01:49.853Z,54.57
2022-12-15T07:04:22.274Z,54.77
2022-12-15T07:06:54.411Z,54.70
2022-12-15T07:09:30.207Z,54.94
2022-12-15T07:12:02.442Z,54.72
2022-12-15T07:14:34.628Z,54.52
2022-12-15T07:17:07.189Z,54.80
2022-12-15T07:19:42.568Z,55.10
2022-12-15T07:22:17.989Z,55.59
2022-12-15T07:24:50.278Z,56.26
2022-12-15T07:27:22.974Z,56.99
2022-12-15T07:29:55.475Z,57.49
2022-12-15T07:32:27.805Z,57.72
2022-12-15T07:35:05.431Z,57.75
2022-12-15T07:37:38.320Z,57.87
2022-12-15T07:40:13.756Z,58.12
2022-12-15T07:42:49.936Z,58.12
2022-12-15T07:45:22.217Z,58.38
2022-12-15T07:47:54.283Z,58.59
2022-12-15T07:50:29.404Z,58.86
2022-12-15T07:53:03.478Z,59.25
2022-12-15T07:56:05.105Z,59.87
2022-12-15T07:58:33.838Z,60.00
2022-12-15T08:01:09.060Z,60.15
2022-12-15T08:03:50.759Z,60.14
2022-12-15T08:06:23.192Z,59.69
2022-12-15T08:08:58.425Z,59.64
2022-12-15T08:11:34.648Z,59.59
2022-12-15T08:14:11.953Z,59.58
2022-12-15T08:16:48.588Z,59.75
2022-12-15T08:19:20.893Z,59.73
2022-12-15T08:21:53.627Z,60.24
2022-12-15T08:24:29.710Z,60.60
2022-12-15T08:27:03.160Z,60.68
2022-12-15T08:29:52.234Z,60.91
2022-12-15T08:32:29.652Z,61.23
2022-12-15T08:35:02.284Z,61.57
2022-12-15T08:37:35.085Z,61.77
2022-12-15T08:40:09.238Z,61.73
2022-12-15T08:42:43.927Z,62.11
2022-12-15T08:45:16.498Z,62.10
2022-12-15T08:47:48.892Z,61.95
2022-12-15T08:50:21.469Z,62.17
2022-12-15T08:53:21.318Z,62.34
2022-12-15T08:55:50.904Z,62.18
2022-12-15T08:58:24.111Z,62.23
2022-12-15T09:01:03.067Z,62.55
2022-12-15T09:03:38.007Z,62.68
2022-12-15T09:06:22.733Z,63.08
2022-12-15T09:09:04.390Z,63.42
2022-12-15T09:11:42.327Z,63.59
2022-12-15T09:14:14.812Z,63.48
2022-12-15T09:16:50.720Z,63.16
2022-12-15T09:19:23.045Z,63.21
2022-12-15T09:21:55.789Z,63.62
2022-12-15T09:24:34.978Z,64.09
2022-12-15T09:27:08.157Z,63.88
2022-12-15T09:29:40.881Z,64.22
2022-12-15T09:32:14.565Z,64.27
2022-12-15T09:34:46.836Z,64.14
2022-12-15T09:37:19.070Z,64.03
2022-12-15T09:39:51.308Z,64.46
2022-12-15T09:42:33.091Z,64.79
2022-12-15T09:45:18.355Z,65.24
2022-12-15T09:47:55.071Z,64.89
2022-12-15T09:50:35.883Z,64.99
2022-12-15T09:53:45.619Z,64.85
2022-12-15T09:56:09.641Z,64.83
2022-12-15T09:58:53.211Z,64.57
2022-12-15T10:01:33.754Z,65.00
2022-12-15T10:04:17.760Z,65.00
2022-12-15T10:06:56.163Z,65.26
2022-12-15T10:09:29.932Z,64.79
2022-12-15T10:12:04.615Z,65.04
2022-12-15T10:14:42.652Z,65.07
2022-12-15T10:17:24.143Z,64.81
2022-12-15T10:20:07.702Z,65.27
2022-12-15T10:22:40.569Z,65.41
2022-12-15T10:25:27.430Z,65.74
2022-12-15T10:28:20.102Z,66.18
2022-12-15T10:30:59.483Z,66.26
2022-12-15T10:33:36.154Z,66.16
2022-12-15T10:36:13.648Z,66.15
2022-12-15T10:41:40.268Z,65.63
2022-12-15T10:44:32.046Z,65.31
2022-12-15T10:47:12.203Z,65.46
2022-12-15T10:49:44.308Z,65.57
2022-12-15T10:52:25.344Z,65.61
2022-12-15T10:54:58.171Z,65.74
2022-12-15T10:57:33.668Z,65.88
2022-12-15T11:00:30.065Z,65.73
2022-12-15T11:03:02.543Z,66.06
2022-12-15T11:05:36.140Z,66.40
2022-12-15T11:08:18.791Z,66.23
2022-12-15T11:11:12.675Z,66.18
2022-12-15T11:14:04.723Z,66.00
2022-12-15T11:16:44.002Z,65.06
2022-12-15T11:19:23.439Z,64.90
2022-12-15T11:22:01.164Z,65.19
2022-12-15T11:24:40.111Z,65.42
2022-12-15T11:27:24.251Z,65.62
2022-12-15T11:30:04.095Z,65.96
2022-12-15T11:32:38.810Z,65.75
2022-12-15T11:35:15.126Z,65.73
2022-12-15T11:37:49.376Z,65.76
2022-12-15T11:40:39.174Z,64.93
2022-12-15T11:43:35.606Z,64.98
2022-12-15T11:46:22.786Z,64.72
2022-12-15T11:49:28.125Z,64.09
2022-12-15T11:52:08.423Z,63.93
2022-12-15T11:54:48.380Z,63.93
2022-12-15T11:57:46.649Z,64.77
2022-12-15T12:00:24.144Z,64.30
2022-12-15T12:03:09.467Z,63.82
2022-12-15T12:07:42.176Z,64.06
2022-12-15T12:10:32.304Z,64.00
2022-12-15T12:13:14.368Z,64.32
2022-12-15T12:15:56.869Z,64.01
2022-12-15T12:18:36.224Z,64.14
2022-12-15T12:21:12.108Z,63.56
2022-12-15T12:23:50.867Z,63.70
2022-12-15T12:26:33.474Z,63.19
2022-12-15T12:29:13.389Z,63.46
2022-12-15T12:32:04.017Z,63.80
2022-12-15T12:35:31.676Z,64.36
2022-12-15T12:37:56.928Z,63.59
2022-12-15T12:40:38.255Z,63.62
2022-12-15T12:43:14.055Z,64.02
2022-12-15T12:46:10.271Z,63.69
2022-12-15T12:48:48.564Z,63.61
2022-12-15T12:51:27.830Z,62.99
2022-12-15T12:54:01.489Z,63.53
2022-12-15T12:56:37.910Z,63.34
2022-12-15T12:59:38.133Z,63.49
2022-12-15T13:02:45.492Z,63.72
2022-12-15T13:05:37.345Z,64.06
2022-12-15T13:08:40.460Z,64.81
2022-12-15T13:11:58.649Z,64.54
2022-12-15T13:14:44.847Z,64.22
2022-12-15T13:17:29.163Z,64.30
2022-12-15T13:20:28.746Z,64.63
2022-12-15T13:23:34.731Z,64.26
2022-12-15T13:26:22.254Z,64.26
2022-12-15T13:28:59.368Z,64.12
2022-12-15T13:31:42.444Z,63.68
2022-12-15T13:34:37.153Z,63.71
2022-12-15T13:37:49.222Z,63.54
2022-12-15T13:40:50.750Z,63.42
2022-12-15T13:43:43.964Z,63.47
2022-12-15T13:46:24.612Z,63.77
2022-12-15T13:49:10.586Z,63.40
2022-12-15T13:51:51.653Z,63.52
2022-12-15T13:54:32.303Z,63.54
2022-12-15T13:57:10.956Z,63.61
2022-12-15T13:59:49.571Z,63.64
2022-12-15T14:02:30.348Z,63.63
2022-12-15T14:05:17.361Z,63.80
2022-12-15T14:07:54.802Z,63.79
2022-12-15T14:10:37.261Z,63.87
2022-12-15T14:13:17.338Z,63.84
2022-12-15T14:15:52.904Z,63.57
2022-12-15T14:18:31.842Z,63.40
2022-12-15T14:21:06.789Z,63.33
2022-12-15T14:23:58.021Z,63.04
2022-12-15T14:26:37.187Z,62.94
2022-12-15T14:29:11.703Z,63.04
2022-12-15T14:31:42.470Z,63.20
2022-12-15T14:34:19.876Z,63.34
2022-12-15T14:36:52.732Z,63.31
2022-12-15T14:39:27.973Z,63.40
2022-12-15T14:42:02.549Z,63.48
2022-12-15T14:44:38.666Z,63.40
2022-12-15T14:47:21.403Z,63.19
2022-12-15T14:49:54.860Z,63.06
2022-12-15T14:52:34.013Z,63.22
2022-12-15T14:55:27.569Z,63.68
2022-12-15T14:58:00.115Z,63.44
2022-12-15T15:00:34.611Z,63.01
2022-12-15T15:03:09.887Z,66.03
2022-12-15T15:06:05.147Z,62.67
2022-12-15T15:08:44.684Z,62.44
2022-12-15T15:11:29.971Z,62.55
2022-12-15T15:14:06.323Z,62.96
2022-12-15T15:16:38.927Z,63.22
2022-12-15T15:19:22.258Z,62.90
2022-12-15T15:21:54.501Z,62.65
2022-12-15T15:24:31.008Z,62.43
2022-12-15T15:27:27.928Z,62.41
2022-12-15T15:30:18.266Z,62.40
2022-12-15T15:32:58.760Z,62.26
2022-12-15T15:35:35.231Z,62.24
2022-12-15T15:38:21.620Z,62.26
2022-12-15T15:40:56.565Z,62.23
2022-12-15T15:43:30.579Z,62.38
2022-12-15T15:46:07.271Z,62.48
2022-12-15T15:48:49.152Z,62.50
2022-12-15T15:51:21.858Z,62.55
2022-12-15T15:53:54.871Z,62.86
2022-12-15T15:56:28.011Z,62.86
2022-12-15T15:59:00.584Z,62.84
2022-12-15T16:01:32.951Z,63.09
2022-12-15T16:04:06.851Z,62.93
2022-12-15T16:06:45.155Z,62.86
2022-12-15T16:09:19.391Z,62.71
2022-12-15T16:11:52.483Z,62.89
2022-12-15T16:14:25.151Z,62.93
2022-12-15T16:16:58.413Z,62.97
2022-12-15T16:19:33.818Z,63.00
2022-12-15T16:22:14.841Z,62.83
2022-12-15T16:24:47.776Z,62.92
2022-12-15T16:27:20.129Z,63.11
2022-12-15T16:29:52.290Z,63.28
2022-12-15T16:32:24.509Z,62.97
2022-12-15T16:34:56.793Z,63.11
2022-12-15T16:37:34.798Z,62.88
2022-12-15T16:40:22.114Z,62.97
2022-12-15T16:43:00.713Z,63.03
2022-12-15T16:45:34.079Z,62.56
2022-12-15T16:48:06.574Z,62.72
2022-12-15T16:50:41.479Z,62.63
2022-12-15T16:53:19.324Z,62.59
2022-12-15T16:55:54.691Z,62.85
2022-12-15T16:58:29.272Z,62.76
2022-12-15T17:01:01.861Z,62.88
2022-12-15T17:03:34.432Z,62.87
2022-12-15T17:06:09.577Z,62.83
2022-12-15T17:08:44.786Z,63.49
2022-12-15T17:11:20.388Z,63.68
2022-12-15T17:13:55.003Z,63.16
2022-12-15T17:16:29.553Z,63.11
2022-12-15T17:19:01.890Z,63.18
2022-12-15T17:21:36.831Z,63.10
2022-12-15T17:24:15.323Z,63.17
2022-12-15T17:26:48.329Z,63.43
2022-12-15T17:29:23.445Z,63.37
2022-12-15T17:31:55.608Z,63.02
2022-12-15T17:34:33.871Z,63.01
2022-12-15T17:37:12.555Z,62.41
2022-12-15T17:39:51.090Z,62.04
2022-12-15T17:42:23.784Z,61.44
2022-12-15T17:44:55.992Z,61.18
2022-12-15T17:47:30.608Z,61.00
2022-12-15T17:50:02.841Z,60.70
2022-12-15T17:52:35.654Z,60.56
2022-12-15T17:55:19.555Z,60.51
2022-12-15T17:57:54.698Z,60.35
2022-12-15T18:00:29.607Z,60.08
2022-12-15T18:03:03.710Z,59.96
2022-12-15T18:05:36.422Z,59.95
2022-12-15T18:08:16.490Z,59.96
2022-12-15T18:10:51.170Z,59.56
2022-12-15T18:13:27.887Z,59.82
2022-12-15T18:16:02.051Z,59.74
2022-12-15T18:18:35.254Z,59.41
2022-12-15T18:21:16.126Z,59.04
2022-12-15T18:23:48.535Z,58.86
2022-12-15T18:26:21.324Z,58.50
2022-12-15T18:28:53.688Z,58.25
2022-12-15T18:31:28.303Z,58.40
2022-12-15T18:34:04.442Z,58.47
2022-12-15T18:36:37.741Z,59.43
2022-12-15T18:39:19.852Z,59.05
2022-12-15T18:41:54.656Z,58.44
2022-12-15T18:44:29.776Z,58.47
2022-12-15T18:47:02.848Z,58.23
2022-12-15T18:49:35.548Z,57.95
2022-12-15T18:52:11.189Z,58.01
2022-12-15T18:54:43.357Z,57.49
2022-12-15T18:57:28.734Z,57.96
2022-12-15T19:00:04.885Z,58.13
2022-12-15T19:02:37.349Z,57.55
2022-12-15T19:05:27.521Z,56.78
2022-12-15T19:08:04.048Z,56.24
2022-12-15T19:10:37.933Z,55.99
2022-12-15T19:13:16.658Z,55.96
2022-12-15T19:15:49.012Z,56.01
2022-12-15T19:18:40.475Z,56.35
2022-12-15T19:21:39.294Z,56.74
2022-12-15T19:24:14.366Z,56.86
2022-12-15T19:26:46.675Z,56.47
2022-12-15T19:29:22.295Z,56.56
2022-12-15T19:31:55.161Z,56.46
2022-12-15T19:34:28.469Z,56.85
2022-12-15T19:37:02.008Z,58.11
2022-12-15T19:39:37.189Z,57.66
2022-12-15T19:42:19.304Z,57.21
2022-12-15T19:44:52.360Z,57.33
2022-12-15T19:47:24.571Z,57.14
2022-12-15T19:49:56.906Z,57.07
2022-12-15T19:52:30.023Z,56.92
2022-12-15T19:55:02.404Z,56.56
2022-12-15T19:57:35.050Z,56.26
2022-12-15T20:00:17.172Z,56.88
2022-12-15T20:02:51.449Z,56.88
2022-12-15T20:05:26.622Z,56.54
2022-12-15T20:08:00.341Z,56.26
2022-12-15T20:10:33.132Z,56.22
2022-12-15T20:13:07.621Z,56.06
2022-12-15T20:15:38.444Z,55.59
2022-12-15T20:18:11.724Z,55.67
2022-12-15T20:20:47.364Z,55.78
2022-12-15T20:23:23.843Z,55.63
2022-12-15T20:25:57.081Z,55.67
2022-12-15T20:28:31.148Z,55.66
2022-12-15T20:31:03.907Z,55.59
2022-12-15T20:33:37.078Z,55.40
2022-12-15T20:36:14.493Z,55.56
2022-12-15T20:38:47.605Z,55.48
2022-12-15T20:41:22.729Z,55.40
2022-12-15T20:43:56.674Z,55.79
2022-12-15T20:46:35.035Z,56.01
2022-12-15T20:49:14.736Z,55.86
2022-12-15T20:51:49.151Z,55.84
2022-12-15T20:54:23.797Z,56.02
2022-12-15T20:56:54.889Z,55.91
2022-12-15T20:59:27.313Z,55.93
2022-12-15T21:01:59.858Z,56.10
2022-12-15T21:04:33.547Z,56.11
2022-12-15T21:07:07.290Z,56.53
2022-12-15T21:09:39.786Z,56.81
2022-12-15T21:12:19.663Z,56.96
2022-12-15T21:14:52.308Z,56.63
2022-12-15T21:17:25.896Z,56.04
2022-12-15T21:19:58.075Z,56.00
2022-12-15T21:22:31.074Z,56.24
2022-12-15T21:25:04.228Z,56.07
2022-12-15T21:27:36.712Z,55.96
2022-12-15T21:30:20.605Z,55.91
2022-12-15T21:32:53.698Z,55.67
2022-12-15T21:35:30.314Z,55.50
2022-12-15T21:38:04.568Z,55.19
2022-12-15T21:40:36.863Z,55.13
2022-12-15T21:43:10.851Z,55.34
2022-12-15T21:45:43.188Z,55.76
2022-12-15T21:48:34.066Z,56.14
2022-12-15T21:51:06.901Z,55.80
2022-12-15T21:53:39.429Z,55.64
2022-12-15T21:56:17.485Z,55.91
2022-12-15T21:58:52.634Z,56.08
2022-12-15T22:01:30.265Z,56.43
2022-12-15T22:04:06.699Z,57.64
2022-12-15T22:06:39.128Z,59.26
2022-12-15T22:09:13.595Z,60.01
2022-12-15T22:11:46.032Z,60.14
2022-12-15T22:14:25.302Z,60.53
2022-12-15T22:16:58.739Z,60.25
2022-12-15T22:19:30.951Z,59.83
2022-12-15T22:22:03.216Z,59.35
2022-12-15T22:24:35.400Z,58.93
2022-12-15T22:27:15.735Z,58.43
2022-12-15T22:29:48.653Z,58.54
2022-12-15T22:32:20.906Z,58.26
2022-12-15T22:34:53.567Z,58.39
2022-12-15T22:37:25.700Z,58.52
2022-12-15T22:39:57.929Z,58.50
2022-12-15T22:42:30.812Z,58.01
2022-12-15T22:45:03.297Z,57.75
2022-12-15T22:47:38.774Z,57.53
2022-12-15T22:50:18.839Z,56.87
2022-12-15T22:52:51.398Z,56.68
2022-12-15T22:55:24.756Z,56.51
2022-12-15T22:58:03.276Z,56.17
2022-12-15T23:00:35.388Z,55.87
2022-12-15T23:03:09.331Z,55.70
2022-12-15T23:05:43.744Z,55.55
2022-12-15T23:08:16.471Z,55.67
2022-12-15T23:11:06.150Z,55.90
2022-12-15T23:13:38.429Z,56.07
2022-12-15T23:16:23.322Z,56.30
2022-12-15T23:18:57.197Z,56.35
2022-12-15T23:21:30.093Z,56.39
2022-12-15T23:24:03.239Z,56.66
2022-12-15T23:26:35.423Z,56.40
2022-12-15T23:29:08.152Z,56.95
2022-12-15T23:31:40.377Z,57.62
2022-12-15T23:34:13.261Z,57.82
2022-12-15T23:36:47.599Z,57.66
2022-12-15T23:39:20.565Z,57.99
2022-12-15T23:41:53.141Z,58.03
2022-12-15T23:44:25.552Z,57.72
2022-12-15T23:46:58.420Z,57.40
2022-12-15T23:49:31.029Z,57.15
2022-12-15T23:52:03.250Z,57.21
2022-12-15T23:54:35.669Z,57.36
2022-12-15T23:57:07.858Z,57.40
2022-12-15T23:59:40.941Z,57.42
